Aérodrome :
LOGIN :

S'inscrire | Disclaimer

   EN    FR    IT 

 










Légende :    VFR   VFR Marginal   IFR   IFR Intensif   IFR Très Intensif
Visi : 
Plafond : 
>= 8 km
>= 3000ft
5 à 8 km
1000 à 3000 ft
1500m à 5 km
500 à 1000 ft
800 à 1500m
200 à 500 ft
< 800m
< 200 ft
Symboles :   Orages  Brouillard  Fortes neiges  Fortes précipitations  Vent > 20 kt
SIGMETs :   Divers  Orages  Givrage  Turbulence  Onde Orograph.  Cendres Volcan.







- Altitude de l'aérodrome : 267 ft


EGDR - Culdrose Navy

DERNIER METAR :
  • 212350Z AUTO 29007KT 4900 // OVC003/// 10/10 Q1010

METARs EXPIRÉS :
  • 212250Z AUTO 26013KT 0150 // VV/// 11/11 Q1011
  • 212150Z AUTO 26014KT 0250 // VV/// 11/11 Q1011

Prévision TAF périmée.
Pas de NOTAMs connus pour ce terrain.
2 SIGMETs publiés pour la FIR London (EGTT) :
 
Onde orographique forte
EGTT SIGMET 07 VALID 212230/220230 EGRR
EGTT LONDON FIR SEV MTW FCST WI N5320 E00143 - N5309 W00144 - N5500 W00348 - N5500 E00025 - N5320 E00143 FL040/120 STNR NC=
Givrage fort
EGTT SIGMET 06 VALID 212300/220300 EGRR
EGTT LONDON FIR SEV ICE FCST WI N5500 E00147 - N5500 E00400 - N5430 E00432 - N5306 E00318 - N5500 E00147 FL030/110 MOV NE 15KT NC=



MET'MAP, la Météo Aéronautique d'un coup d'oeil ! - Copyright ORBIFLY Décembre 2007 - Disclaimer

ORBIFLY MET'MAP TEAM :

Programmation & Développement : Alexandra Zaïnal
Conception & Développement : Baudouin d'Aumeries
Co-Programmation & Développement : Marc-Olivier Méhu
Soutien technique & logistique : Manuel Goepfert

Contact : metmap@orbifly.com




SOURCES & CREDITS :

   NOAA